sensor_id;sensor_type;location;lat;lon;timestamp;P1;durP1;ratioP1;P2;durP2;ratioP2
70010;SDS011;59543;37.950;-122.338;2023-06-19T00:00:46;11.80;;;3.53;;
70010;SDS011;59543;37.950;-122.338;2023-06-19T00:03:12;44.78;;;3.50;;
70010;SDS011;59543;37.950;-122.338;2023-06-19T00:05:38;13.05;;;3.30;;
70010;SDS011;59543;37.950;-122.338;2023-06-19T00:08:04;8.73;;;2.88;;
70010;SDS011;59543;37.950;-122.338;2023-06-19T00:10:32;6.82;;;1.90;;
70010;SDS011;59543;37.950;-122.338;2023-06-19T00:12:58;24.25;;;3.80;;
70010;SDS011;59543;37.950;-122.338;2023-06-19T00:15:25;10.68;;;2.85;;
70010;SDS011;59543;37.950;-122.338;2023-06-19T00:17:52;52.92;;;4.68;;
70010;SDS011;59543;37.950;-122.338;2023-06-19T00:20:18;18.35;;;4.18;;
70010;SDS011;59543;37.950;-122.338;2023-06-19T00:22:45;13.82;;;3.83;;
70010;SDS011;59543;37.950;-122.338;2023-06-19T00:25:17;60.78;;;5.70;;
70010;SDS011;59543;37.950;-122.338;2023-06-19T00:27:46;17.38;;;3.95;;
70010;SDS011;59543;37.950;-122.338;2023-06-19T00:30:12;8.50;;;2.92;;
70010;SDS011;59543;37.950;-122.338;2023-06-19T00:32:39;13.30;;;1.75;;
70010;SDS011;59543;37.950;-122.338;2023-06-19T00:35:12;20.13;;;1.70;;
70010;SDS011;59543;37.950;-122.338;2023-06-19T00:37:40;15.70;;;1.63;;
70010;SDS011;59543;37.950;-122.338;2023-06-19T00:40:21;7.80;;;1.50;;
70010;SDS011;59543;37.950;-122.338;2023-06-19T00:42:52;4.90;;;1.40;;
70010;SDS011;59543;37.950;-122.338;2023-06-19T00:45:19;8.05;;;1.58;;
70010;SDS011;59543;37.950;-122.338;2023-06-19T00:47:45;10.27;;;1.48;;
70010;SDS011;59543;37.950;-122.338;2023-06-19T00:50:12;15.43;;;1.38;;
70010;SDS011;59543;37.950;-122.338;2023-06-19T00:52:38;23.13;;;1.80;;
70010;SDS011;59543;37.950;-122.338;2023-06-19T00:55:05;11.52;;;1.40;;
70010;SDS011;59543;37.950;-122.338;2023-06-19T00:57:33;13.48;;;1.65;;
70010;SDS011;59543;37.950;-122.338;2023-06-19T00:59:59;17.52;;;1.55;;
70010;SDS011;59543;37.950;-122.338;2023-06-19T01:02:26;14.15;;;1.50;;
70010;SDS011;59543;37.950;-122.338;2023-06-19T01:04:52;5.95;;;1.25;;
70010;SDS011;59543;37.950;-122.338;2023-06-19T01:07:29;6.07;;;1.60;;
70010;SDS011;59543;37.950;-122.338;2023-06-19T01:10:09;5.53;;;1.20;;
70010;SDS011;59543;37.950;-122.338;2023-06-19T01:12:45;12.63;;;1.67;;
70010;SDS011;59543;37.950;-122.338;2023-06-19T01:15:18;5.60;;;1.42;;
70010;SDS011;59543;37.950;-122.338;2023-06-19T01:17:45;3.85;;;1.30;;
70010;SDS011;59543;37.950;-122.338;2023-06-19T01:20:13;11.65;;;1.50;;
70010;SDS011;59543;37.950;-122.338;2023-06-19T01:22:40;21.27;;;2.08;;
70010;SDS011;59543;37.950;-122.338;2023-06-19T01:25:09;12.90;;;1.75;;
70010;SDS011;59543;37.950;-122.338;2023-06-19T01:27:39;10.63;;;1.40;;
70010;SDS011;59543;37.950;-122.338;2023-06-19T01:30:07;8.18;;;1.60;;
70010;SDS011;59543;37.950;-122.338;2023-06-19T01:35:08;5.90;;;1.38;;
70010;SDS011;59543;37.950;-122.338;2023-06-19T01:37:37;9.88;;;1.35;;
70010;SDS011;59543;37.950;-122.338;2023-06-19T01:40:05;38.40;;;2.75;;
70010;SDS011;59543;37.950;-122.338;2023-06-19T01:42:35;14.27;;;1.23;;
70010;SDS011;59543;37.950;-122.338;2023-06-19T01:45:04;6.75;;;1.33;;
70010;SDS011;59543;37.950;-122.338;2023-06-19T01:47:32;9.77;;;1.05;;
70010;SDS011;59543;37.950;-122.338;2023-06-19T01:49:58;7.20;;;1.48;;
70010;SDS011;59543;37.950;-122.338;2023-06-19T01:52:24;47.60;;;3.13;;
70010;SDS011;59543;37.950;-122.338;2023-06-19T01:54:51;12.00;;;1.38;;
70010;SDS011;59543;37.950;-122.338;2023-06-19T01:57:17;10.63;;;1.60;;
70010;SDS011;59543;37.950;-122.338;2023-06-19T01:59:44;15.18;;;1.30;;
70010;SDS011;59543;37.950;-122.338;2023-06-19T02:02:10;5.10;;;0.90;;
70010;SDS011;59543;37.950;-122.338;2023-06-19T02:04:37;14.77;;;1.85;;
70010;SDS011;59543;37.950;-122.338;2023-06-19T02:07:03;4.07;;;1.35;;
70010;SDS011;59543;37.950;-122.338;2023-06-19T02:09:29;7.22;;;1.30;;
70010;SDS011;59543;37.950;-122.338;2023-06-19T02:11:55;12.90;;;1.55;;
70010;SDS011;59543;37.950;-122.338;2023-06-19T02:14:22;6.70;;;1.52;;
70010;SDS011;59543;37.950;-122.338;2023-06-19T02:16:48;13.50;;;1.58;;
70010;SDS011;59543;37.950;-122.338;2023-06-19T02:19:14;8.65;;;1.70;;
70010;SDS011;59543;37.950;-122.338;2023-06-19T02:21:40;5.38;;;1.23;;
70010;SDS011;59543;37.950;-122.338;2023-06-19T02:24:07;7.13;;;1.48;;
70010;SDS011;59543;37.950;-122.338;2023-06-19T02:26:33;13.35;;;1.70;;
70010;SDS011;59543;37.950;-122.338;2023-06-19T02:28:59;11.55;;;1.85;;
70010;SDS011;59543;37.950;-122.338;2023-06-19T02:31:25;5.93;;;1.30;;
70010;SDS011;59543;37.950;-122.338;2023-06-19T02:33:51;3.15;;;1.30;;
70010;SDS011;59543;37.950;-122.338;2023-06-19T02:36:18;7.50;;;1.30;;
70010;SDS011;59543;37.950;-122.338;2023-06-19T02:38:47;7.82;;;1.17;;
70010;SDS011;59543;37.950;-122.338;2023-06-19T02:41:14;18.50;;;1.67;;
70010;SDS011;59543;37.950;-122.338;2023-06-19T02:43:41;4.85;;;1.42;;
70010;SDS011;59543;37.950;-122.338;2023-06-19T02:46:08;6.78;;;1.35;;
70010;SDS011;59543;37.950;-122.338;2023-06-19T02:48:35;15.00;;;1.55;;
70010;SDS011;59543;37.950;-122.338;2023-06-19T02:51:01;5.75;;;1.17;;
70010;SDS011;59543;37.950;-122.338;2023-06-19T02:53:27;7.07;;;1.30;;
70010;SDS011;59543;37.950;-122.338;2023-06-19T02:55:54;5.60;;;1.52;;
70010;SDS011;59543;37.950;-122.338;2023-06-19T02:58:20;4.55;;;1.63;;
70010;SDS011;59543;37.950;-122.338;2023-06-19T03:00:46;6.80;;;1.45;;
70010;SDS011;59543;37.950;-122.338;2023-06-19T03:03:12;7.32;;;1.98;;
70010;SDS011;59543;37.950;-122.338;2023-06-19T03:05:38;4.80;;;1.45;;
70010;SDS011;59543;37.950;-122.338;2023-06-19T03:08:05;11.40;;;2.58;;
70010;SDS011;59543;37.950;-122.338;2023-06-19T03:10:32;9.40;;;2.10;;
70010;SDS011;59543;37.950;-122.338;2023-06-19T03:12:58;5.22;;;1.55;;
70010;SDS011;59543;37.950;-122.338;2023-06-19T03:15:25;7.30;;;1.85;;
70010;SDS011;59543;37.950;-122.338;2023-06-19T03:17:54;7.20;;;1.95;;
70010;SDS011;59543;37.950;-122.338;2023-06-19T03:20:20;9.30;;;1.90;;
70010;SDS011;59543;37.950;-122.338;2023-06-19T03:22:46;9.43;;;1.85;;
70010;SDS011;59543;37.950;-122.338;2023-06-19T03:25:13;12.18;;;1.88;;
70010;SDS011;59543;37.950;-122.338;2023-06-19T03:27:39;4.35;;;1.60;;
70010;SDS011;59543;37.950;-122.338;2023-06-19T03:30:05;7.63;;;1.95;;
70010;SDS011;59543;37.950;-122.338;2023-06-19T03:32:33;7.00;;;1.77;;
70010;SDS011;59543;37.950;-122.338;2023-06-19T03:35:00;5.32;;;1.33;;
70010;SDS011;59543;37.950;-122.338;2023-06-19T03:37:27;7.38;;;1.65;;
70010;SDS011;59543;37.950;-122.338;2023-06-19T03:39:53;11.13;;;1.88;;
70010;SDS011;59543;37.950;-122.338;2023-06-19T03:42:20;5.55;;;1.55;;
70010;SDS011;59543;37.950;-122.338;2023-06-19T03:44:47;8.75;;;2.00;;
70010;SDS011;59543;37.950;-122.338;2023-06-19T03:47:13;6.13;;;2.03;;
70010;SDS011;59543;37.950;-122.338;2023-06-19T03:49:39;9.65;;;1.52;;
70010;SDS011;59543;37.950;-122.338;2023-06-19T03:52:06;8.02;;;2.17;;
70010;SDS011;59543;37.950;-122.338;2023-06-19T03:54:32;8.07;;;2.22;;
70010;SDS011;59543;37.950;-122.338;2023-06-19T03:56:58;8.82;;;1.67;;
70010;SDS011;59543;37.950;-122.338;2023-06-19T03:59:25;9.75;;;2.15;;
70010;SDS011;59543;37.950;-122.338;2023-06-19T04:01:51;8.70;;;2.25;;
70010;SDS011;59543;37.950;-122.338;2023-06-19T04:04:17;9.43;;;2.63;;
70010;SDS011;59543;37.950;-122.338;2023-06-19T04:06:44;13.90;;;2.97;;
70010;SDS011;59543;37.950;-122.338;2023-06-19T04:09:12;8.25;;;2.55;;
70010;SDS011;59543;37.950;-122.338;2023-06-19T04:11:38;16.40;;;3.03;;
70010;SDS011;59543;37.950;-122.338;2023-06-19T04:14:04;8.18;;;2.28;;
70010;SDS011;59543;37.950;-122.338;2023-06-19T04:16:30;9.60;;;2.38;;
70010;SDS011;59543;37.950;-122.338;2023-06-19T04:18:57;10.43;;;2.55;;
70010;SDS011;59543;37.950;-122.338;2023-06-19T04:21:23;10.55;;;2.97;;
70010;SDS011;59543;37.950;-122.338;2023-06-19T04:23:50;10.40;;;2.20;;
70010;SDS011;59543;37.950;-122.338;2023-06-19T04:26:16;10.80;;;2.70;;
70010;SDS011;59543;37.950;-122.338;2023-06-19T04:28:43;16.67;;;3.00;;
70010;SDS011;59543;37.950;-122.338;2023-06-19T04:31:09;12.68;;;3.10;;
70010;SDS011;59543;37.950;-122.338;2023-06-19T04:33:35;12.30;;;3.17;;
70010;SDS011;59543;37.950;-122.338;2023-06-19T04:36:02;10.68;;;3.15;;
70010;SDS011;59543;37.950;-122.338;2023-06-19T04:38:28;11.15;;;3.15;;
70010;SDS011;59543;37.950;-122.338;2023-06-19T04:40:54;15.35;;;3.45;;
70010;SDS011;59543;37.950;-122.338;2023-06-19T04:43:22;14.05;;;3.58;;
70010;SDS011;59543;37.950;-122.338;2023-06-19T04:45:50;11.68;;;3.35;;
70010;SDS011;59543;37.950;-122.338;2023-06-19T04:48:16;13.68;;;3.47;;
70010;SDS011;59543;37.950;-122.338;2023-06-19T04:50:42;12.13;;;3.33;;
70010;SDS011;59543;37.950;-122.338;2023-06-19T04:53:08;14.23;;;3.40;;
70010;SDS011;59543;37.950;-122.338;2023-06-19T04:55:34;11.05;;;3.67;;
70010;SDS011;59543;37.950;-122.338;2023-06-19T04:58:01;12.18;;;3.33;;
70010;SDS011;59543;37.950;-122.338;2023-06-19T05:00:27;12.32;;;3.30;;
70010;SDS011;59543;37.950;-122.338;2023-06-19T05:02:53;13.82;;;3.55;;
70010;SDS011;59543;37.950;-122.338;2023-06-19T05:05:25;19.80;;;3.90;;
70010;SDS011;59543;37.950;-122.338;2023-06-19T05:07:52;13.77;;;3.25;;
70010;SDS011;59543;37.950;-122.338;2023-06-19T05:10:18;10.15;;;3.10;;
70010;SDS011;59543;37.950;-122.338;2023-06-19T05:12:45;11.18;;;3.28;;
70010;SDS011;59543;37.950;-122.338;2023-06-19T05:15:11;10.90;;;3.17;;
70010;SDS011;59543;37.950;-122.338;2023-06-19T05:17:37;15.00;;;3.40;;
70010;SDS011;59543;37.950;-122.338;2023-06-19T05:20:07;11.40;;;3.28;;
70010;SDS011;59543;37.950;-122.338;2023-06-19T05:22:33;10.57;;;3.10;;
70010;SDS011;59543;37.950;-122.338;2023-06-19T05:25:00;11.68;;;3.38;;
70010;SDS011;59543;37.950;-122.338;2023-06-19T05:27:26;15.88;;;3.38;;
70010;SDS011;59543;37.950;-122.338;2023-06-19T05:29:53;11.88;;;3.30;;
70010;SDS011;59543;37.950;-122.338;2023-06-19T05:32:19;11.93;;;2.75;;
70010;SDS011;59543;37.950;-122.338;2023-06-19T05:34:45;11.23;;;2.95;;
70010;SDS011;59543;37.950;-122.338;2023-06-19T05:37:11;11.00;;;2.90;;
70010;SDS011;59543;37.950;-122.338;2023-06-19T05:39:37;9.95;;;2.83;;
70010;SDS011;59543;37.950;-122.338;2023-06-19T05:42:04;12.30;;;2.63;;
70010;SDS011;59543;37.950;-122.338;2023-06-19T05:44:30;14.50;;;3.13;;
70010;SDS011;59543;37.950;-122.338;2023-06-19T05:46:57;8.65;;;2.63;;
70010;SDS011;59543;37.950;-122.338;2023-06-19T05:49:23;8.63;;;2.58;;
70010;SDS011;59543;37.950;-122.338;2023-06-19T05:51:49;11.95;;;2.80;;
70010;SDS011;59543;37.950;-122.338;2023-06-19T05:54:15;9.95;;;2.70;;
70010;SDS011;59543;37.950;-122.338;2023-06-19T05:56:43;10.95;;;2.85;;
70010;SDS011;59543;37.950;-122.338;2023-06-19T05:59:09;15.52;;;3.13;;
70010;SDS011;59543;37.950;-122.338;2023-06-19T06:01:35;10.38;;;2.83;;
70010;SDS011;59543;37.950;-122.338;2023-06-19T06:04:02;10.27;;;2.58;;
70010;SDS011;59543;37.950;-122.338;2023-06-19T06:06:28;12.90;;;2.88;;
70010;SDS011;59543;37.950;-122.338;2023-06-19T06:08:54;10.10;;;2.58;;
70010;SDS011;59543;37.950;-122.338;2023-06-19T06:11:21;9.95;;;2.67;;
70010;SDS011;59543;37.950;-122.338;2023-06-19T06:13:48;11.90;;;2.78;;
70010;SDS011;59543;37.950;-122.338;2023-06-19T06:16:14;8.80;;;2.58;;
70010;SDS011;59543;37.950;-122.338;2023-06-19T06:18:40;11.88;;;2.80;;
70010;SDS011;59543;37.950;-122.338;2023-06-19T06:21:07;10.27;;;2.63;;
70010;SDS011;59543;37.950;-122.338;2023-06-19T06:23:33;10.23;;;2.55;;
70010;SDS011;59543;37.950;-122.338;2023-06-19T06:25:59;9.63;;;2.55;;
70010;SDS011;59543;37.950;-122.338;2023-06-19T06:28:28;9.25;;;2.35;;
70010;SDS011;59543;37.950;-122.338;2023-06-19T06:30:55;11.90;;;2.78;;
70010;SDS011;59543;37.950;-122.338;2023-06-19T06:33:21;9.65;;;2.95;;
70010;SDS011;59543;37.950;-122.338;2023-06-19T06:35:47;10.98;;;3.03;;
70010;SDS011;59543;37.950;-122.338;2023-06-19T06:38:14;10.18;;;2.42;;
70010;SDS011;59543;37.950;-122.338;2023-06-19T06:40:40;9.20;;;2.17;;
70010;SDS011;59543;37.950;-122.338;2023-06-19T06:43:08;9.88;;;2.45;;
70010;SDS011;59543;37.950;-122.338;2023-06-19T06:45:34;12.52;;;2.50;;
70010;SDS011;59543;37.950;-122.338;2023-06-19T06:48:03;11.13;;;3.00;;
70010;SDS011;59543;37.950;-122.338;2023-06-19T06:50:32;10.90;;;2.83;;
70010;SDS011;59543;37.950;-122.338;2023-06-19T06:52:58;8.55;;;2.58;;
70010;SDS011;59543;37.950;-122.338;2023-06-19T06:55:24;12.55;;;3.13;;
70010;SDS011;59543;37.950;-122.338;2023-06-19T06:57:51;11.45;;;2.90;;
70010;SDS011;59543;37.950;-122.338;2023-06-19T07:00:17;14.75;;;3.13;;
70010;SDS011;59543;37.950;-122.338;2023-06-19T07:02:43;11.70;;;3.25;;
70010;SDS011;59543;37.950;-122.338;2023-06-19T07:05:13;14.55;;;2.50;;
70010;SDS011;59543;37.950;-122.338;2023-06-19T07:07:39;11.30;;;2.95;;
70010;SDS011;59543;37.950;-122.338;2023-06-19T07:10:05;14.02;;;3.45;;
70010;SDS011;59543;37.950;-122.338;2023-06-19T07:12:32;11.05;;;3.30;;
70010;SDS011;59543;37.950;-122.338;2023-06-19T07:14:59;11.93;;;3.17;;
70010;SDS011;59543;37.950;-122.338;2023-06-19T07:17:25;13.60;;;3.50;;
70010;SDS011;59543;37.950;-122.338;2023-06-19T07:19:51;11.23;;;3.08;;
70010;SDS011;59543;37.950;-122.338;2023-06-19T07:22:17;19.75;;;3.53;;
70010;SDS011;59543;37.950;-122.338;2023-06-19T07:24:44;17.13;;;3.42;;
70010;SDS011;59543;37.950;-122.338;2023-06-19T07:27:10;13.82;;;3.92;;
70010;SDS011;59543;37.950;-122.338;2023-06-19T07:29:36;13.32;;;3.47;;
70010;SDS011;59543;37.950;-122.338;2023-06-19T07:32:03;11.27;;;3.47;;
70010;SDS011;59543;37.950;-122.338;2023-06-19T07:34:29;12.48;;;3.25;;
70010;SDS011;59543;37.950;-122.338;2023-06-19T07:36:56;14.30;;;3.33;;
70010;SDS011;59543;37.950;-122.338;2023-06-19T07:39:22;14.02;;;3.67;;
70010;SDS011;59543;37.950;-122.338;2023-06-19T07:41:48;12.43;;;3.17;;
70010;SDS011;59543;37.950;-122.338;2023-06-19T07:44:14;16.42;;;3.63;;
70010;SDS011;59543;37.950;-122.338;2023-06-19T07:46:43;12.82;;;3.40;;
70010;SDS011;59543;37.950;-122.338;2023-06-19T07:49:09;13.65;;;3.47;;
70010;SDS011;59543;37.950;-122.338;2023-06-19T07:51:35;12.88;;;3.83;;
70010;SDS011;59543;37.950;-122.338;2023-06-19T07:54:01;11.98;;;3.35;;
70010;SDS011;59543;37.950;-122.338;2023-06-19T07:56:28;14.57;;;4.18;;
70010;SDS011;59543;37.950;-122.338;2023-06-19T07:58:54;14.25;;;3.65;;
70010;SDS011;59543;37.950;-122.338;2023-06-19T08:01:20;19.88;;;4.22;;
70010;SDS011;59543;37.950;-122.338;2023-06-19T08:03:46;13.75;;;3.88;;
70010;SDS011;59543;37.950;-122.338;2023-06-19T08:06:13;14.77;;;3.63;;
70010;SDS011;59543;37.950;-122.338;2023-06-19T08:08:39;15.90;;;3.70;;
70010;SDS011;59543;37.950;-122.338;2023-06-19T08:11:05;17.30;;;3.28;;
70010;SDS011;59543;37.950;-122.338;2023-06-19T08:13:31;15.90;;;3.58;;
70010;SDS011;59543;37.950;-122.338;2023-06-19T08:15:58;14.15;;;3.47;;
70010;SDS011;59543;37.950;-122.338;2023-06-19T08:18:24;11.40;;;3.65;;
70010;SDS011;59543;37.950;-122.338;2023-06-19T08:20:50;15.23;;;3.58;;
70010;SDS011;59543;37.950;-122.338;2023-06-19T08:23:16;15.88;;;3.78;;
70010;SDS011;59543;37.950;-122.338;2023-06-19T08:25:42;15.60;;;3.53;;
70010;SDS011;59543;37.950;-122.338;2023-06-19T08:28:09;15.38;;;3.65;;
70010;SDS011;59543;37.950;-122.338;2023-06-19T08:30:35;14.30;;;3.67;;
70010;SDS011;59543;37.950;-122.338;2023-06-19T08:33:01;12.15;;;3.47;;
70010;SDS011;59543;37.950;-122.338;2023-06-19T08:35:27;11.80;;;3.13;;
70010;SDS011;59543;37.950;-122.338;2023-06-19T08:37:53;18.17;;;4.15;;
70010;SDS011;59543;37.950;-122.338;2023-06-19T08:40:20;13.45;;;3.33;;
70010;SDS011;59543;37.950;-122.338;2023-06-19T08:42:46;13.63;;;3.42;;
70010;SDS011;59543;37.950;-122.338;2023-06-19T08:45:13;12.63;;;3.67;;
70010;SDS011;59543;37.950;-122.338;2023-06-19T08:47:39;14.68;;;3.90;;
70010;SDS011;59543;37.950;-122.338;2023-06-19T08:50:05;14.93;;;4.07;;
70010;SDS011;59543;37.950;-122.338;2023-06-19T08:52:32;18.52;;;4.18;;
70010;SDS011;59543;37.950;-122.338;2023-06-19T08:54:58;18.63;;;4.00;;
70010;SDS011;59543;37.950;-122.338;2023-06-19T08:57:32;19.83;;;4.10;;
70010;SDS011;59543;37.950;-122.338;2023-06-19T09:00:08;16.40;;;4.10;;
70010;SDS011;59543;37.950;-122.338;2023-06-19T09:02:36;25.30;;;5.13;;
70010;SDS011;59543;37.950;-122.338;2023-06-19T09:05:16;17.48;;;3.90;;
70010;SDS011;59543;37.950;-122.338;2023-06-19T09:07:43;21.48;;;4.70;;
70010;SDS011;59543;37.950;-122.338;2023-06-19T09:10:19;20.48;;;4.25;;
70010;SDS011;59543;37.950;-122.338;2023-06-19T09:15:28;16.00;;;3.92;;
70010;SDS011;59543;37.950;-122.338;2023-06-19T09:18:09;14.50;;;3.80;;
70010;SDS011;59543;37.950;-122.338;2023-06-19T09:20:40;20.20;;;4.65;;
70010;SDS011;59543;37.950;-122.338;2023-06-19T09:23:12;19.52;;;4.60;;
70010;SDS011;59543;37.950;-122.338;2023-06-19T09:25:54;15.90;;;4.25;;
70010;SDS011;59543;37.950;-122.338;2023-06-19T09:28:24;20.27;;;4.53;;
70010;SDS011;59543;37.950;-122.338;2023-06-19T09:30:56;14.68;;;3.78;;
70010;SDS011;59543;37.950;-122.338;2023-06-19T09:33:29;15.75;;;4.22;;
70010;SDS011;59543;37.950;-122.338;2023-06-19T09:36:01;17.70;;;4.43;;
70010;SDS011;59543;37.950;-122.338;2023-06-19T09:38:29;16.77;;;3.95;;
70010;SDS011;59543;37.950;-122.338;2023-06-19T09:41:00;11.77;;;3.45;;
70010;SDS011;59543;37.950;-122.338;2023-06-19T09:43:37;19.85;;;4.25;;
70010;SDS011;59543;37.950;-122.338;2023-06-19T09:46:06;16.45;;;3.78;;
70010;SDS011;59543;37.950;-122.338;2023-06-19T09:48:33;13.25;;;3.83;;
70010;SDS011;59543;37.950;-122.338;2023-06-19T09:51:02;20.58;;;4.60;;
70010;SDS011;59543;37.950;-122.338;2023-06-19T09:53:30;15.02;;;3.85;;
70010;SDS011;59543;37.950;-122.338;2023-06-19T09:55:56;15.23;;;3.90;;
70010;SDS011;59543;37.950;-122.338;2023-06-19T09:58:22;18.35;;;4.15;;
70010;SDS011;59543;37.950;-122.338;2023-06-19T10:00:50;19.00;;;4.47;;
70010;SDS011;59543;37.950;-122.338;2023-06-19T10:03:17;15.35;;;3.95;;
70010;SDS011;59543;37.950;-122.338;2023-06-19T10:05:43;16.98;;;3.83;;
70010;SDS011;59543;37.950;-122.338;2023-06-19T10:08:09;17.85;;;4.18;;
70010;SDS011;59543;37.950;-122.338;2023-06-19T10:10:36;17.63;;;4.05;;
70010;SDS011;59543;37.950;-122.338;2023-06-19T10:13:15;18.38;;;3.97;;
70010;SDS011;59543;37.950;-122.338;2023-06-19T10:15:43;17.15;;;3.92;;
70010;SDS011;59543;37.950;-122.338;2023-06-19T10:18:16;20.25;;;4.18;;
70010;SDS011;59543;37.950;-122.338;2023-06-19T10:20:44;15.23;;;3.85;;
70010;SDS011;59543;37.950;-122.338;2023-06-19T10:23:15;15.77;;;3.65;;
70010;SDS011;59543;37.950;-122.338;2023-06-19T10:25:44;15.05;;;3.67;;
70010;SDS011;59543;37.950;-122.338;2023-06-19T10:28:25;13.00;;;3.35;;
70010;SDS011;59543;37.950;-122.338;2023-06-19T10:30:56;20.30;;;3.88;;
70010;SDS011;59543;37.950;-122.338;2023-06-19T10:33:31;13.77;;;4.07;;
70010;SDS011;59543;37.950;-122.338;2023-06-19T10:36:00;17.63;;;4.40;;
70010;SDS011;59543;37.950;-122.338;2023-06-19T10:38:28;17.70;;;4.15;;
70010;SDS011;59543;37.950;-122.338;2023-06-19T10:40:54;17.98;;;4.45;;
70010;SDS011;59543;37.950;-122.338;2023-06-19T10:43:22;15.20;;;3.67;;
70010;SDS011;59543;37.950;-122.338;2023-06-19T10:45:57;16.05;;;4.40;;
70010;SDS011;59543;37.950;-122.338;2023-06-19T10:48:24;18.20;;;4.22;;
70010;SDS011;59543;37.950;-122.338;2023-06-19T10:50:51;10.57;;;3.50;;
70010;SDS011;59543;37.950;-122.338;2023-06-19T10:53:26;16.23;;;4.68;;
70010;SDS011;59543;37.950;-122.338;2023-06-19T10:55:58;20.85;;;3.95;;
70010;SDS011;59543;37.950;-122.338;2023-06-19T10:58:27;18.83;;;4.72;;
70010;SDS011;59543;37.950;-122.338;2023-06-19T11:00:54;17.15;;;3.80;;
70010;SDS011;59543;37.950;-122.338;2023-06-19T11:03:20;21.20;;;4.60;;
70010;SDS011;59543;37.950;-122.338;2023-06-19T11:05:47;17.73;;;3.92;;
70010;SDS011;59543;37.950;-122.338;2023-06-19T11:08:18;17.23;;;4.18;;
70010;SDS011;59543;37.950;-122.338;2023-06-19T11:10:45;15.82;;;3.83;;
70010;SDS011;59543;37.950;-122.338;2023-06-19T11:13:18;14.65;;;3.88;;
70010;SDS011;59543;37.950;-122.338;2023-06-19T11:15:45;15.40;;;3.30;;
70010;SDS011;59543;37.950;-122.338;2023-06-19T11:18:15;14.95;;;3.25;;
70010;SDS011;59543;37.950;-122.338;2023-06-19T11:23:13;14.95;;;3.53;;
70010;SDS011;59543;37.950;-122.338;2023-06-19T11:25:40;19.70;;;3.75;;
70010;SDS011;59543;37.950;-122.338;2023-06-19T11:28:16;16.08;;;4.00;;
70010;SDS011;59543;37.950;-122.338;2023-06-19T11:30:48;14.77;;;3.75;;
70010;SDS011;59543;37.950;-122.338;2023-06-19T11:33:21;17.95;;;4.15;;
70010;SDS011;59543;37.950;-122.338;2023-06-19T11:35:51;18.13;;;4.53;;
70010;SDS011;59543;37.950;-122.338;2023-06-19T11:38:19;13.00;;;3.42;;
70010;SDS011;59543;37.950;-122.338;2023-06-19T11:40:50;15.98;;;3.50;;
70010;SDS011;59543;37.950;-122.338;2023-06-19T11:43:26;12.57;;;3.33;;
70010;SDS011;59543;37.950;-122.338;2023-06-19T11:46:02;17.42;;;4.25;;
70010;SDS011;59543;37.950;-122.338;2023-06-19T11:48:29;12.88;;;3.45;;
70010;SDS011;59543;37.950;-122.338;2023-06-19T11:50:55;18.92;;;4.32;;
70010;SDS011;59543;37.950;-122.338;2023-06-19T11:53:22;13.23;;;3.92;;
70010;SDS011;59543;37.950;-122.338;2023-06-19T11:55:49;15.45;;;3.63;;
70010;SDS011;59543;37.950;-122.338;2023-06-19T11:58:18;11.43;;;3.22;;
70010;SDS011;59543;37.950;-122.338;2023-06-19T12:00:46;12.75;;;3.67;;
70010;SDS011;59543;37.950;-122.338;2023-06-19T12:03:12;14.40;;;3.35;;
70010;SDS011;59543;37.950;-122.338;2023-06-19T12:05:39;11.07;;;3.45;;
70010;SDS011;59543;37.950;-122.338;2023-06-19T12:08:05;13.15;;;3.30;;
70010;SDS011;59543;37.950;-122.338;2023-06-19T12:10:32;12.25;;;3.08;;
70010;SDS011;59543;37.950;-122.338;2023-06-19T12:12:59;11.32;;;3.33;;
70010;SDS011;59543;37.950;-122.338;2023-06-19T12:15:26;12.32;;;3.30;;
70010;SDS011;59543;37.950;-122.338;2023-06-19T12:17:52;13.45;;;3.80;;
70010;SDS011;59543;37.950;-122.338;2023-06-19T12:20:18;13.00;;;3.15;;
70010;SDS011;59543;37.950;-122.338;2023-06-19T12:22:45;12.63;;;3.20;;
70010;SDS011;59543;37.950;-122.338;2023-06-19T12:25:11;10.23;;;2.55;;
70010;SDS011;59543;37.950;-122.338;2023-06-19T12:27:37;11.45;;;3.10;;
70010;SDS011;59543;37.950;-122.338;2023-06-19T12:30:04;13.10;;;3.28;;
70010;SDS011;59543;37.950;-122.338;2023-06-19T12:32:31;13.52;;;3.15;;
70010;SDS011;59543;37.950;-122.338;2023-06-19T12:34:57;9.65;;;3.13;;
70010;SDS011;59543;37.950;-122.338;2023-06-19T12:37:24;15.68;;;3.40;;
70010;SDS011;59543;37.950;-122.338;2023-06-19T12:39:50;11.77;;;3.00;;
70010;SDS011;59543;37.950;-122.338;2023-06-19T12:42:16;13.10;;;3.00;;
70010;SDS011;59543;37.950;-122.338;2023-06-19T12:44:43;12.48;;;3.40;;
70010;SDS011;59543;37.950;-122.338;2023-06-19T12:47:10;15.93;;;3.28;;
70010;SDS011;59543;37.950;-122.338;2023-06-19T12:49:36;10.65;;;2.78;;
70010;SDS011;59543;37.950;-122.338;2023-06-19T12:52:02;12.85;;;3.20;;
70010;SDS011;59543;37.950;-122.338;2023-06-19T12:54:29;10.75;;;2.90;;
70010;SDS011;59543;37.950;-122.338;2023-06-19T12:56:55;9.82;;;2.75;;
70010;SDS011;59543;37.950;-122.338;2023-06-19T12:59:21;12.75;;;3.10;;
70010;SDS011;59543;37.950;-122.338;2023-06-19T13:01:48;9.00;;;2.65;;
70010;SDS011;59543;37.950;-122.338;2023-06-19T13:04:14;15.80;;;3.50;;
70010;SDS011;59543;37.950;-122.338;2023-06-19T13:06:40;12.55;;;2.92;;
70010;SDS011;59543;37.950;-122.338;2023-06-19T13:09:06;9.38;;;2.40;;
70010;SDS011;59543;37.950;-122.338;2023-06-19T13:11:33;10.88;;;2.53;;
70010;SDS011;59543;37.950;-122.338;2023-06-19T13:14:02;11.85;;;2.72;;
70010;SDS011;59543;37.950;-122.338;2023-06-19T13:16:30;9.32;;;2.83;;
70010;SDS011;59543;37.950;-122.338;2023-06-19T13:18:56;14.85;;;2.85;;
70010;SDS011;59543;37.950;-122.338;2023-06-19T13:21:23;10.20;;;2.50;;
70010;SDS011;59543;37.950;-122.338;2023-06-19T13:23:49;16.38;;;2.92;;
70010;SDS011;59543;37.950;-122.338;2023-06-19T13:26:15;10.98;;;2.80;;
70010;SDS011;59543;37.950;-122.338;2023-06-19T13:28:41;9.68;;;2.85;;
70010;SDS011;59543;37.950;-122.338;2023-06-19T13:31:08;11.10;;;2.72;;
70010;SDS011;59543;37.950;-122.338;2023-06-19T13:33:34;11.82;;;2.80;;
70010;SDS011;59543;37.950;-122.338;2023-06-19T13:36:00;10.65;;;3.05;;
70010;SDS011;59543;37.950;-122.338;2023-06-19T13:38:27;7.72;;;2.20;;
70010;SDS011;59543;37.950;-122.338;2023-06-19T13:40:53;10.85;;;2.45;;
70010;SDS011;59543;37.950;-122.338;2023-06-19T13:43:19;10.10;;;2.60;;
70010;SDS011;59543;37.950;-122.338;2023-06-19T13:45:48;18.30;;;3.13;;
70010;SDS011;59543;37.950;-122.338;2023-06-19T13:48:15;13.68;;;2.85;;
70010;SDS011;59543;37.950;-122.338;2023-06-19T13:50:41;9.27;;;2.70;;
70010;SDS011;59543;37.950;-122.338;2023-06-19T13:53:07;11.23;;;2.72;;
70010;SDS011;59543;37.950;-122.338;2023-06-19T13:55:34;17.02;;;3.50;;
70010;SDS011;59543;37.950;-122.338;2023-06-19T13:58:00;11.48;;;3.00;;
70010;SDS011;59543;37.950;-122.338;2023-06-19T14:00:27;12.65;;;2.72;;
70010;SDS011;59543;37.950;-122.338;2023-06-19T14:02:53;12.00;;;2.78;;
70010;SDS011;59543;37.950;-122.338;2023-06-19T14:05:19;9.60;;;2.58;;
70010;SDS011;59543;37.950;-122.338;2023-06-19T14:07:46;11.20;;;3.08;;